Time;durP1;ratioP1;P1;durP2;ratioP2;P2;SDS_P1;SDS_P2;PMS_P1;PMS_P2;Temp;Humidity;BMP_temperature;BMP_pressure;BME280_temperature;BME280_humidity;BME280_pressure;Samples;Min_cycle;Max_cycle;Signal;HPM_P1;HPM_P2
2022/10/14 00:01:01;;;;;;;1.95;1.27;;;14.30;73.50;;;;;;5031611;28;20179;-75
2022/10/14 00:03:27;;;;;;;1.80;1.70;;;14.30;73.60;;;;;;5033262;28;20290;-74
2022/10/14 00:05:52;;;;;;;1.27;1.27;;;14.40;73.70;;;;;;5048344;28;20588;-74
2022/10/14 00:08:18;;;;;;;1.58;1.48;;;14.40;73.70;;;;;;5057407;28;21511;-72
2022/10/14 00:10:43;;;;;;;1.75;1.63;;;14.40;73.80;;;;;;5055000;28;20695;-73
2022/10/14 00:13:09;;;;;;;1.10;1.10;;;14.30;73.70;;;;;;5039078;28;20590;-74
2022/10/14 00:15:40;;;;;;;1.38;1.38;;;14.20;74.10;;;;;;5055056;28;20193;-73
2022/10/14 00:18:06;;;;;;;1.10;1.10;;;14.20;74.20;;;;;;5050832;28;20591;-74
2022/10/14 00:20:33;;;;;;;0.93;0.93;;;14.20;74.40;;;;;;5032780;28;20179;-73
2022/10/14 00:22:59;;;;;;;1.10;1.10;;;14.20;74.30;;;;;;5052156;28;20183;-73
2022/10/14 00:25:25;;;;;;;1.95;1.50;;;14.20;74.60;;;;;;5048763;28;20224;-75
2022/10/14 00:27:51;;;;;;;1.17;1.17;;;14.20;74.50;;;;;;5054189;28;20175;-73
2022/10/14 00:30:17;;;;;;;1.52;1.35;;;14.20;74.60;;;;;;5030861;28;20186;-74
2022/10/14 00:32:43;;;;;;;2.15;1.17;;;14.20;74.60;;;;;;5035263;28;20207;-71
2022/10/14 00:35:09;;;;;;;1.00;0.95;;;14.10;74.70;;;;;;5049726;28;20215;-74
2022/10/14 00:37:35;;;;;;;1.17;1.15;;;14.10;75.10;;;;;;5034392;28;20176;-73
2022/10/14 00:40:00;;;;;;;1.15;1.15;;;14.10;75.00;;;;;;5052806;28;20210;-74
2022/10/14 00:42:26;;;;;;;1.35;1.00;;;14.20;75.00;;;;;;5051296;28;20187;-74
2022/10/14 00:45:00;;;;;;;1.95;0.85;;;14.20;75.00;;;;;;5050561;28;20227;-74
2022/10/14 00:47:26;;;;;;;0.90;0.90;;;14.30;74.90;;;;;;5031360;28;20200;-75
2022/10/14 00:49:52;;;;;;;1.42;1.00;;;14.30;75.10;;;;;;5054142;28;20187;-75
2022/10/14 00:52:20;;;;;;;1.65;0.80;;;14.30;75.10;;;;;;5056431;28;20179;-75
2022/10/14 00:54:46;;;;;;;0.80;0.80;;;14.30;75.30;;;;;;5053295;28;20197;-74
2022/10/14 00:57:13;;;;;;;0.68;0.68;;;14.30;75.50;;;;;;5052560;28;20180;-74
2022/10/14 00:59:39;;;;;;;0.77;0.77;;;14.20;75.60;;;;;;5037226;28;20267;-74
2022/10/14 01:02:04;;;;;;;0.70;0.70;;;14.10;75.70;;;;;;5030616;28;20663;-75
2022/10/14 01:04:31;;;;;;;1.33;0.90;;;14.00;76.10;;;;;;5035073;28;20207;-73
2022/10/14 01:07:14;;;;;;;0.90;0.90;;;14.00;76.60;;;;;;5032875;28;20643;-74
2022/10/14 01:09:45;;;;;;;0.80;0.80;;;14.00;76.30;;;;;;5035481;28;20219;-74
2022/10/14 01:12:23;;;;;;;0.80;0.80;;;13.90;77.00;;;;;;5030945;28;20215;-74
2022/10/14 01:14:58;;;;;;;0.68;0.68;;;13.90;77.10;;;;;;5028463;28;20186;-73
2022/10/14 01:17:52;;;;;;;0.88;0.75;;;13.90;77.00;;;;;;5033097;28;20182;-73
2022/10/14 01:20:36;;;;;;;0.77;0.77;;;13.90;77.00;;;;;;5048109;28;20176;-74
2022/10/14 01:23:29;;;;;;;0.63;0.63;;;13.80;77.10;;;;;;5034927;28;20190;-74
2022/10/14 01:26:20;;;;;;;0.60;0.60;;;13.90;77.30;;;;;;5032933;28;20279;-74
2022/10/14 01:29:21;;;;;;;2.33;0.95;;;13.90;77.20;;;;;;5031616;28;20278;-73
2022/10/14 01:31:55;;;;;;;1.30;0.77;;;13.80;77.40;;;;;;5050184;28;20185;-74
2022/10/14 01:34:27;;;;;;;3.25;0.68;;;13.80;77.50;;;;;;5036172;28;20604;-72
2022/10/14 01:37:17;;;;;;;4.13;0.90;;;13.80;78.00;;;;;;5032914;28;20274;-74
2022/10/14 01:39:55;;;;;;;1.00;0.55;;;13.80;77.60;;;;;;5030268;28;20179;-74
2022/10/14 01:42:30;;;;;;;0.50;0.50;;;13.70;77.90;;;;;;5035600;28;20277;-75
2022/10/14 01:45:01;;;;;;;0.60;0.60;;;13.70;77.80;;;;;;5033447;28;20198;-74
2022/10/14 01:47:30;;;;;;;1.63;0.60;;;13.70;78.20;;;;;;5035189;28;20245;-74
2022/10/14 01:50:02;;;;;;;0.75;0.73;;;13.70;78.30;;;;;;5052177;28;20179;-75
2022/10/14 01:52:33;;;;;;;0.68;0.68;;;13.60;78.60;;;;;;5049608;28;20234;-75
2022/10/14 01:55:05;;;;;;;2.78;0.73;;;13.60;78.60;;;;;;5046430;28;20708;-74
2022/10/14 01:57:33;;;;;;;0.55;0.40;;;13.60;79.40;;;;;;5031041;28;20595;-74
2022/10/14 02:00:00;;;;;;;0.57;0.57;;;13.50;79.20;;;;;;5048303;28;20218;-74
2022/10/14 02:02:26;;;;;;;0.50;0.50;;;13.50;79.50;;;;;;5031230;28;20190;-75
2022/10/14 02:04:52;;;;;;;0.55;0.55;;;13.50;79.70;;;;;;5050312;28;20183;-74
2022/10/14 02:07:28;;;;;;;1.75;0.70;;;13.50;79.90;;;;;;5033397;28;20202;-74
2022/10/14 02:10:12;;;;;;;1.08;0.60;;;13.50;80.00;;;;;;5050542;28;20179;-74
2022/10/14 02:12:48;;;;;;;0.55;0.55;;;13.60;79.60;;;;;;5053476;28;20244;-73
2022/10/14 02:15:38;;;;;;;0.50;0.50;;;13.60;79.10;;;;;;5037868;28;20183;-72
2022/10/14 02:18:48;;;;;;;2.25;0.70;;;13.60;79.20;;;;;;5030040;28;20689;-74
2022/10/14 02:21:55;;;;;;;0.90;0.40;;;13.60;79.30;;;;;;5025773;28;20192;-75
2022/10/14 02:24:32;;;;;;;1.00;0.52;;;13.70;79.20;;;;;;4964982;28;20612;-74
2022/10/14 02:27:01;;;;;;;0.52;0.52;;;13.70;79.90;;;;;;4966020;28;20272;-74
2022/10/14 02:29:29;;;;;;;1.40;0.60;;;13.60;79.70;;;;;;4954008;28;21017;-73
2022/10/14 02:31:57;;;;;;;2.20;0.40;;;13.60;80.00;;;;;;4965578;28;20181;-74
2022/10/14 02:34:23;;;;;;;0.40;0.40;;;13.60;79.70;;;;;;4949881;28;20189;-72
2022/10/14 02:36:51;;;;;;;0.52;0.50;;;13.60;79.90;;;;;;4970393;28;20241;-74
2022/10/14 02:39:24;;;;;;;0.50;0.50;;;13.60;80.70;;;;;;4967225;28;20190;-74
2022/10/14 02:41:50;;;;;;;2.63;0.50;;;13.50;80.80;;;;;;4952709;28;20683;-75
2022/10/14 02:44:16;;;;;;;0.47;0.47;;;13.40;81.40;;;;;;4922125;28;1368376;-74
2022/10/14 02:46:42;;;;;;;2.38;0.35;;;13.40;81.30;;;;;;4969822;28;20688;-75
2022/10/14 02:49:07;;;;;;;0.68;0.50;;;13.40;81.30;;;;;;4966177;28;20237;-74
2022/10/14 02:51:33;;;;;;;1.20;0.40;;;13.30;81.30;;;;;;4953856;28;20297;-73
2022/10/14 02:54:01;;;;;;;0.45;0.45;;;13.30;81.40;;;;;;4969657;28;20647;-74
2022/10/14 02:56:26;;;;;;;0.73;0.60;;;13.30;81.60;;;;;;4969660;28;20883;-75
2022/10/14 02:58:52;;;;;;;1.95;0.50;;;13.30;81.30;;;;;;4963118;28;20201;-74
2022/10/14 03:01:18;;;;;;;0.52;0.52;;;13.30;81.60;;;;;;5011966;28;20191;-74
2022/10/14 03:03:43;;;;;;;0.98;0.50;;;13.30;81.80;;;;;;5050896;28;20288;-74
2022/10/14 03:06:09;;;;;;;0.30;0.30;;;13.30;81.50;;;;;;5049586;28;20234;-75
2022/10/14 03:08:35;;;;;;;0.38;0.38;;;13.30;81.50;;;;;;5033716;28;20183;-74
2022/10/14 03:11:00;;;;;;;0.40;0.40;;;13.40;81.40;;;;;;5035210;28;20240;-74
2022/10/14 03:13:26;;;;;;;0.40;0.40;;;13.40;81.10;;;;;;5032278;28;20217;-74
2022/10/14 03:15:52;;;;;;;1.88;0.57;;;13.40;81.00;;;;;;5050311;28;20652;-74
2022/10/14 03:18:18;;;;;;;2.45;0.50;;;13.40;81.40;;;;;;5029873;28;20187;-74
2022/10/14 03:20:44;;;;;;;0.40;0.40;;;13.30;81.50;;;;;;5032280;28;20187;-74
2022/10/14 03:23:10;;;;;;;1.45;0.43;;;13.30;81.20;;;;;;5028202;28;20179;-74
2022/10/14 03:25:35;;;;;;;0.40;0.40;;;13.30;81.50;;;;;;5046687;28;20717;-74
2022/10/14 03:28:01;;;;;;;0.55;0.55;;;13.30;81.60;;;;;;5049543;28;20258;-73
2022/10/14 03:30:27;;;;;;;0.50;0.50;;;13.30;81.50;;;;;;5035207;28;20365;-74
2022/10/14 03:32:53;;;;;;;1.20;0.43;;;13.40;81.60;;;;;;5031981;28;20606;-74
2022/10/14 03:35:19;;;;;;;0.60;0.60;;;13.40;81.50;;;;;;5050813;28;20316;-74
2022/10/14 03:37:45;;;;;;;0.60;0.60;;;13.40;81.70;;;;;;5033258;28;20247;-74
2022/10/14 03:40:11;;;;;;;0.50;0.50;;;13.40;81.80;;;;;;5030653;28;20266;-74
2022/10/14 03:42:37;;;;;;;0.40;0.40;;;13.40;81.60;;;;;;5046981;28;20180;-74
2022/10/14 03:45:03;;;;;;;0.40;0.40;;;13.30;81.90;;;;;;5027954;28;20663;-75
2022/10/14 03:47:28;;;;;;;0.55;0.50;;;13.30;81.80;;;;;;5049543;28;20935;-74
2022/10/14 03:49:54;;;;;;;0.50;0.40;;;13.30;81.80;;;;;;5031108;28;20266;-74
2022/10/14 03:52:20;;;;;;;0.60;0.60;;;13.30;82.30;;;;;;5032229;28;21114;-75
2022/10/14 03:54:45;;;;;;;0.50;0.50;;;13.30;81.90;;;;;;5027590;28;20192;-74
2022/10/14 03:57:11;;;;;;;0.70;0.70;;;13.30;82.10;;;;;;5050744;28;20191;-74
2022/10/14 03:59:37;;;;;;;0.70;0.70;;;13.20;82.50;;;;;;5047222;28;20381;-74
2022/10/14 04:02:02;;;;;;;0.65;0.65;;;13.10;82.40;;;;;;5044357;28;20274;-74
2022/10/14 04:04:29;;;;;;;0.77;0.77;;;13.10;82.60;;;;;;5045066;28;20203;-75
2022/10/14 04:06:54;;;;;;;2.08;0.70;;;13.10;82.40;;;;;;5035116;28;20208;-73
2022/10/14 04:09:20;;;;;;;0.70;0.70;;;13.00;82.80;;;;;;5045755;28;20213;-74
2022/10/14 04:11:46;;;;;;;3.30;0.90;;;13.00;82.80;;;;;;5048530;28;20179;-75
2022/10/14 04:14:11;;;;;;;0.68;0.68;;;12.90;83.20;;;;;;5061089;28;20183;-76
2022/10/14 04:16:37;;;;;;;0.90;0.90;;;13.00;83.30;;;;;;5060339;28;20179;-75
2022/10/14 04:19:03;;;;;;;1.27;0.77;;;13.00;83.20;;;;;;5042257;28;20179;-75
2022/10/14 04:21:28;;;;;;;0.80;0.80;;;12.90;83.40;;;;;;5040418;28;20188;-76
2022/10/14 04:23:54;;;;;;;1.05;1.00;;;12.90;83.40;;;;;;5053488;28;20179;-74
2022/10/14 04:26:19;;;;;;;1.42;1.00;;;12.90;83.40;;;;;;5050534;28;20211;-74
2022/10/14 04:28:45;;;;;;;0.90;0.90;;;12.90;83.80;;;;;;5033235;28;20208;-75
2022/10/14 04:31:11;;;;;;;1.20;1.05;;;12.80;83.80;;;;;;5051279;28;20184;-74
2022/10/14 04:33:37;;;;;;;0.93;0.93;;;12.80;83.80;;;;;;5049693;28;20185;-74
2022/10/14 04:36:05;;;;;;;0.88;0.88;;;12.90;84.00;;;;;;5048481;28;20187;-75
2022/10/14 04:38:31;;;;;;;0.60;0.60;;;12.90;83.40;;;;;;5051350;28;20259;-75
2022/10/14 04:40:58;;;;;;;1.95;0.95;;;13.00;83.40;;;;;;5048684;28;20230;-75
2022/10/14 04:43:23;;;;;;;0.70;0.70;;;13.00;83.30;;;;;;5033896;28;20198;-76
2022/10/14 04:45:49;;;;;;;1.02;0.93;;;12.90;83.70;;;;;;5055659;28;20630;-77
2022/10/14 04:48:16;;;;;;;0.82;0.82;;;12.80;83.90;;;;;;5056506;28;20194;-75
2022/10/14 04:50:42;;;;;;;1.05;0.70;;;12.80;84.00;;;;;;5038958;28;20186;-76
2022/10/14 04:53:08;;;;;;;0.70;0.70;;;12.70;83.80;;;;;;5039019;28;20213;-77
2022/10/14 04:55:34;;;;;;;0.80;0.80;;;12.70;84.40;;;;;;5054918;28;20184;-76
2022/10/14 04:58:00;;;;;;;0.70;0.70;;;12.70;84.10;;;;;;5031605;28;20186;-76
2022/10/14 05:00:25;;;;;;;0.85;0.85;;;12.70;84.20;;;;;;5034934;28;20183;-77
2022/10/14 05:02:51;;;;;;;0.88;0.88;;;12.70;84.60;;;;;;5052328;28;20208;-77
2022/10/14 05:05:17;;;;;;;1.10;1.10;;;12.70;84.40;;;;;;5033796;28;20683;-75
2022/10/14 05:07:43;;;;;;;0.90;0.90;;;12.70;84.00;;;;;;5048592;28;20993;-75
2022/10/14 05:10:09;;;;;;;1.15;0.90;;;12.80;84.00;;;;;;5055204;28;20179;-77
2022/10/14 05:12:36;;;;;;;0.95;0.95;;;12.80;84.00;;;;;;5053941;28;20223;-75
2022/10/14 05:15:04;;;;;;;0.90;0.90;;;12.80;84.00;;;;;;5035105;28;20235;-75
2022/10/14 05:17:30;;;;;;;0.70;0.70;;;12.90;84.30;;;;;;5052154;28;20645;-75
2022/10/14 05:19:56;;;;;;;4.03;0.80;;;12.80;83.70;;;;;;5036183;28;20191;-76
2022/10/14 05:22:22;;;;;;;1.33;1.17;;;12.90;84.00;;;;;;5033416;28;20695;-76
2022/10/14 05:24:48;;;;;;;1.30;1.00;;;12.80;84.00;;;;;;5052775;28;20206;-76
2022/10/14 05:27:13;;;;;;;1.15;1.05;;;12.80;83.70;;;;;;5056371;28;20246;-75
2022/10/14 05:29:39;;;;;;;1.05;1.05;;;12.90;83.60;;;;;;5048657;28;20278;-76
2022/10/14 05:32:05;;;;;;;0.70;0.70;;;12.90;83.40;;;;;;5055147;28;20183;-76
2022/10/14 05:34:30;;;;;;;1.17;0.90;;;13.00;83.20;;;;;;5035239;28;20183;-76
2022/10/14 05:36:56;;;;;;;1.85;1.08;;;13.00;83.10;;;;;;5050987;28;20192;-76
2022/10/14 05:39:22;;;;;;;1.45;1.23;;;12.90;83.20;;;;;;5034870;28;20186;-76
2022/10/14 05:41:47;;;;;;;1.05;1.05;;;12.90;83.20;;;;;;5056120;28;20796;-76
2022/10/14 05:44:13;;;;;;;0.90;0.90;;;12.90;83.00;;;;;;5030546;28;20242;-77
2022/10/14 05:46:39;;;;;;;1.38;1.30;;;13.00;83.00;;;;;;5028887;28;20212;-77
2022/10/14 05:49:04;;;;;;;1.48;1.38;;;13.10;82.60;;;;;;5035978;28;20278;-77
2022/10/14 05:51:33;;;;;;;1.50;1.50;;;13.20;82.70;;;;;;5031261;28;20188;-77
2022/10/14 05:53:59;;;;;;;1.08;1.08;;;13.20;81.90;;;;;;5034153;28;20557;-77
2022/10/14 05:56:25;;;;;;;0.90;0.90;;;13.30;81.80;;;;;;5053981;28;20198;-74
2022/10/14 05:58:51;;;;;;;1.35;1.35;;;13.30;81.30;;;;;;5053669;28;20293;-75
2022/10/14 06:01:17;;;;;;;1.30;1.30;;;13.40;81.40;;;;;;5053152;28;20225;-75
2022/10/14 06:03:43;;;;;;;1.00;1.00;;;13.40;81.00;;;;;;5054042;28;20183;-75
2022/10/14 06:06:13;;;;;;;1.63;1.23;;;13.50;81.00;;;;;;5038073;28;20223;-74
2022/10/14 06:08:39;;;;;;;1.20;1.20;;;13.50;80.60;;;;;;5053722;28;20210;-74
2022/10/14 06:11:06;;;;;;;1.15;1.15;;;13.60;80.70;;;;;;5052417;28;20179;-74
2022/10/14 06:13:34;;;;;;;1.40;1.40;;;13.60;80.60;;;;;;5034315;28;20208;-75
2022/10/14 06:16:05;;;;;;;2.45;1.63;;;13.70;80.80;;;;;;5041276;28;20187;-75
2022/10/14 06:18:31;;;;;;;1.17;1.17;;;13.80;80.60;;;;;;5055313;28;20229;-75
2022/10/14 06:20:57;;;;;;;2.58;0.80;;;13.90;80.80;;;;;;5054396;28;20609;-74
2022/10/14 06:23:23;;;;;;;1.42;0.70;;;14.00;80.60;;;;;;5052717;28;20195;-75
2022/10/14 06:25:50;;;;;;;0.70;0.70;;;14.10;80.50;;;;;;5053272;28;20218;-74
2022/10/14 06:28:16;;;;;;;3.30;1.17;;;14.20;80.40;;;;;;5032399;28;20587;-74
2022/10/14 06:30:42;;;;;;;1.05;1.00;;;14.30;80.20;;;;;;5049873;28;20236;-74
2022/10/14 06:33:08;;;;;;;0.80;0.80;;;14.30;80.10;;;;;;5035812;28;20182;-73
2022/10/14 06:35:34;;;;;;;1.10;1.10;;;14.40;79.60;;;;;;5049148;28;20592;-74
2022/10/14 06:38:00;;;;;;;0.90;0.90;;;14.40;79.70;;;;;;5049674;28;20182;-74
2022/10/14 06:40:26;;;;;;;1.83;0.90;;;14.50;79.80;;;;;;5052819;28;20183;-74
2022/10/14 06:42:52;;;;;;;1.02;0.90;;;14.50;79.60;;;;;;5053573;28;20183;-74
2022/10/14 06:45:18;;;;;;;1.88;1.00;;;14.50;78.90;;;;;;5052784;28;20214;-74
2022/10/14 06:47:44;;;;;;;1.00;1.00;;;14.40;78.90;;;;;;5054656;28;20188;-73
2022/10/14 06:50:10;;;;;;;0.90;0.90;;;14.30;78.60;;;;;;5053299;28;20592;-74
2022/10/14 06:52:36;;;;;;;0.73;0.73;;;14.30;79.00;;;;;;5034544;28;20229;-74
2022/10/14 06:55:03;;;;;;;1.02;1.02;;;14.30;78.90;;;;;;5055379;28;20302;-74
2022/10/14 06:57:29;;;;;;;0.90;0.90;;;14.30;78.90;;;;;;5028292;28;20195;-74
2022/10/14 06:59:55;;;;;;;0.95;0.95;;;14.40;78.80;;;;;;5035110;28;20183;-73
2022/10/14 07:02:21;;;;;;;1.02;1.02;;;14.50;78.80;;;;;;5059943;28;20187;-75
2022/10/14 07:04:47;;;;;;;1.13;1.13;;;14.50;78.70;;;;;;5040936;28;20230;-74
2022/10/14 07:07:13;;;;;;;1.13;1.13;;;14.60;78.60;;;;;;5057525;28;20204;-74
2022/10/14 07:09:40;;;;;;;1.40;1.30;;;14.60;78.40;;;;;;5051063;28;20194;-74
2022/10/14 07:12:06;;;;;;;1.90;1.80;;;14.70;78.30;;;;;;5035838;28;20669;-74
2022/10/14 07:14:32;;;;;;;2.33;2.22;;;14.80;78.10;;;;;;5033109;28;20187;-75
2022/10/14 07:16:59;;;;;;;2.83;1.90;;;14.90;78.40;;;;;;5056664;28;20179;-75
2022/10/14 07:19:25;;;;;;;2.15;2.13;;;14.90;78.30;;;;;;5027862;28;20452;-75
2022/10/14 07:21:52;;;;;;;3.17;1.67;;;15.00;78.00;;;;;;5032281;28;20184;-74
2022/10/14 07:24:18;;;;;;;3.60;1.20;;;15.10;78.00;;;;;;5053817;28;20207;-73
2022/10/14 07:26:44;;;;;;;1.50;1.40;;;15.00;77.20;;;;;;5050303;28;20210;-75
2022/10/14 07:29:10;;;;;;;1.23;1.23;;;15.10;77.50;;;;;;5052887;28;20614;-75
2022/10/14 07:31:37;;;;;;;2.05;1.60;;;15.10;77.10;;;;;;5054571;28;20266;-75
2022/10/14 07:34:03;;;;;;;1.95;1.85;;;15.20;77.50;;;;;;5052142;28;20167;-75
2022/10/14 07:36:30;;;;;;;2.05;1.33;;;15.20;77.30;;;;;;5049792;28;20737;-74
2022/10/14 07:38:56;;;;;;;1.55;1.50;;;15.30;77.40;;;;;;5049687;28;20282;-73
2022/10/14 07:41:24;;;;;;;1.75;1.67;;;15.40;77.30;;;;;;5055635;28;20614;-73
2022/10/14 07:43:54;;;;;;;1.70;1.60;;;15.40;77.00;;;;;;5049679;28;20182;-76
2022/10/14 07:46:33;;;;;;;2.35;1.52;;;15.50;76.60;;;;;;5049785;28;20322;-75
2022/10/14 07:49:18;;;;;;;1.60;1.60;;;15.50;76.80;;;;;;5043869;28;20184;-74
2022/10/14 07:51:48;;;;;;;1.48;1.48;;;15.50;76.70;;;;;;5047948;28;20179;-74
2022/10/14 07:54:25;;;;;;;1.52;1.52;;;15.60;76.50;;;;;;5049375;28;20202;-74
2022/10/14 07:56:52;;;;;;;1.63;1.60;;;15.60;76.00;;;;;;5034656;28;20341;-74
2022/10/14 07:59:21;;;;;;;1.83;1.58;;;15.60;76.10;;;;;;5034086;28;20208;-75
2022/10/14 08:01:48;;;;;;;2.13;1.95;;;15.60;76.00;;;;;;5032187;28;20190;-74
2022/10/14 08:04:15;;;;;;;4.07;1.58;;;15.70;76.20;;;;;;5050264;28;20183;-74
2022/10/14 08:06:42;;;;;;;1.73;1.73;;;15.80;76.20;;;;;;5052434;28;20602;-75
2022/10/14 08:09:10;;;;;;;1.75;1.65;;;15.90;76.20;;;;;;5034801;28;20186;-74
2022/10/14 08:11:37;;;;;;;1.95;1.95;;;16.00;75.20;;;;;;5037028;28;20175;-75
2022/10/14 08:14:03;;;;;;;1.73;1.73;;;16.00;74.80;;;;;;5048919;28;20183;-75
2022/10/14 08:16:35;;;;;;;2.03;1.80;;;16.10;74.80;;;;;;5052426;28;20199;-77
2022/10/14 08:19:05;;;;;;;2.08;1.70;;;16.10;74.20;;;;;;5056843;28;20190;-77
2022/10/14 08:21:35;;;;;;;1.15;1.15;;;16.10;73.80;;;;;;5066389;28;20183;-77
2022/10/14 08:24:01;;;;;;;1.10;1.10;;;16.10;73.40;;;;;;5066308;28;20183;-77
2022/10/14 08:26:30;;;;;;;1.50;1.40;;;16.10;73.90;;;;;;5072189;28;20301;-76
2022/10/14 08:28:58;;;;;;;1.95;1.50;;;16.10;73.80;;;;;;5040187;28;20185;-76
2022/10/14 08:31:24;;;;;;;1.23;1.23;;;16.10;74.10;;;;;;5061072;28;20179;-76
2022/10/14 08:33:51;;;;;;;1.50;1.50;;;16.20;74.00;;;;;;5057681;28;20179;-76
2022/10/14 08:36:18;;;;;;;2.50;1.42;;;16.20;73.70;;;;;;5061081;28;20182;-74
2022/10/14 08:38:44;;;;;;;1.17;1.17;;;16.30;73.90;;;;;;5059133;28;20186;-75
2022/10/14 08:41:23;;;;;;;1.40;1.30;;;16.30;73.60;;;;;;5060375;28;20720;-76
2022/10/14 08:44:12;;;;;;;1.45;1.45;;;16.40;73.50;;;;;;5041173;28;20676;-76
2022/10/14 08:46:49;;;;;;;1.52;1.42;;;16.40;72.30;;;;;;4977782;28;20226;-76
2022/10/14 08:49:24;;;;;;;1.20;1.20;;;16.50;73.00;;;;;;4978511;28;20202;-75
2022/10/14 08:52:22;;;;;;;1.20;1.20;;;16.50;72.30;;;;;;4978629;28;20280;-77
2022/10/14 08:54:59;;;;;;;0.90;0.90;;;16.50;71.40;;;;;;4973736;28;20241;-76
2022/10/14 08:57:30;;;;;;;1.23;1.00;;;16.50;72.00;;;;;;4978748;28;21187;-78
2022/10/14 08:59:57;;;;;;;1.30;1.30;;;16.60;72.20;;;;;;4977370;28;20257;-76
2022/10/14 09:02:23;;;;;;;1.00;1.00;;;16.60;71.80;;;;;;4975165;28;20182;-74
2022/10/14 09:04:49;;;;;;;0.90;0.90;;;16.60;70.60;;;;;;4976523;28;20899;-77
2022/10/14 09:07:19;;;;;;;0.60;0.60;;;16.60;71.00;;;;;;4978294;28;20223;-76
2022/10/14 09:09:52;;;;;;;3.13;0.80;;;16.70;71.00;;;;;;4978831;28;20185;-76
2022/10/14 09:12:28;;;;;;;0.77;0.77;;;16.80;70.70;;;;;;4957714;28;20182;-76
2022/10/14 09:15:13;;;;;;;1.00;1.00;;;16.80;69.90;;;;;;4976021;28;20189;-77
2022/10/14 09:17:55;;;;;;;1.50;0.80;;;16.90;70.10;;;;;;4970946;28;20365;-77
2022/10/14 09:20:26;;;;;;;0.80;0.80;;;17.10;69.90;;;;;;4976018;28;20667;-76
2022/10/14 09:23:03;;;;;;;0.95;0.95;;;17.10;68.80;;;;;;4983861;28;20190;-76
2022/10/14 09:25:34;;;;;;;0.60;0.60;;;17.30;69.50;;;;;;5052133;28;20222;-76
2022/10/14 09:28:00;;;;;;;0.90;0.90;;;17.50;69.50;;;;;;5054442;28;20179;-77
2022/10/14 09:30:35;;;;;;;1.52;1.08;;;17.80;69.30;;;;;;5055637;28;20183;-77
2022/10/14 09:33:03;;;;;;;0.80;0.80;;;18.00;68.00;;;;;;5059800;28;20667;-75
2022/10/14 09:35:37;;;;;;;1.10;1.10;;;18.10;67.70;;;;;;5063528;28;20195;-75
2022/10/14 09:38:04;;;;;;;1.30;1.20;;;18.30;67.80;;;;;;5053992;28;20175;-75
2022/10/14 09:40:45;;;;;;;1.08;1.08;;;18.50;67.80;;;;;;5051772;28;20190;-75
2022/10/14 09:43:23;;;;;;;1.15;1.15;;;18.70;68.20;;;;;;5049809;28;20219;-76
2022/10/14 09:46:09;;;;;;;1.30;1.30;;;18.90;68.10;;;;;;5054615;28;20200;-76
2022/10/14 09:48:48;;;;;;;0.95;0.95;;;19.00;67.00;;;;;;5058128;28;20239;-78
2022/10/14 09:51:25;;;;;;;1.00;1.00;;;19.10;67.50;;;;;;5036518;28;20195;-75
2022/10/14 09:54:03;;;;;;;1.48;1.48;;;19.20;67.40;;;;;;5062262;28;20202;-76
2022/10/14 09:56:41;;;;;;;1.38;1.35;;;19.20;66.90;;;;;;5054759;28;20221;-76
2022/10/14 09:59:20;;;;;;;1.30;1.30;;;19.30;67.20;;;;;;5035095;28;20223;-76
2022/10/14 10:01:59;;;;;;;1.10;1.10;;;19.40;66.80;;;;;;5028324;28;20199;-77
2022/10/14 10:04:33;;;;;;;1.00;1.00;;;19.50;66.50;;;;;;5028214;28;20638;-76
2022/10/14 10:07:05;;;;;;;1.08;1.08;;;19.70;66.00;;;;;;5046780;28;20211;-76
2022/10/14 10:09:33;;;;;;;1.15;1.15;;;19.80;65.40;;;;;;5047736;28;20244;-77
2022/10/14 10:11:59;;;;;;;1.20;1.20;;;20.00;64.80;;;;;;5045495;28;20168;-75
2022/10/14 10:14:29;;;;;;;1.30;1.30;;;20.00;65.30;;;;;;5028994;28;20184;-76
2022/10/14 10:17:13;;;;;;;2.25;1.48;;;20.10;65.50;;;;;;5043669;28;20737;-75
2022/10/14 10:19:42;;;;;;;1.30;1.30;;;20.20;65.10;;;;;;5044869;28;20746;-76
2022/10/14 10:22:23;;;;;;;1.40;1.40;;;20.30;65.20;;;;;;5026581;28;20194;-77
2022/10/14 10:25:00;;;;;;;1.30;1.30;;;20.40;64.50;;;;;;5045943;28;20179;-77
2022/10/14 10:27:36;;;;;;;1.20;1.20;;;20.50;63.30;;;;;;5031025;28;20242;-76
2022/10/14 10:30:28;;;;;;;1.25;1.25;;;20.50;63.10;;;;;;5047993;28;20229;-77
2022/10/14 10:32:54;;;;;;;0.90;0.90;;;20.60;62.50;;;;;;5048951;28;20187;-76
2022/10/14 10:35:52;;;;;;;1.00;1.00;;;20.60;62.60;;;;;;5046724;28;20776;-77
2022/10/14 10:38:31;;;;;;;1.30;0.93;;;20.50;60.50;;;;;;5034782;28;20190;-77
2022/10/14 10:41:22;;;;;;;1.27;1.27;;;20.50;61.50;;;;;;5048454;28;20690;-77
2022/10/14 10:44:15;;;;;;;0.82;0.82;;;20.40;60.70;;;;;;5049193;28;20883;-77
2022/10/14 10:47:03;;;;;;;0.93;0.93;;;20.40;61.60;;;;;;5026037;28;20216;-77
2022/10/14 10:50:07;;;;;;;1.10;1.10;;;20.50;60.80;;;;;;5049852;28;20190;-77
2022/10/14 10:52:50;;;;;;;1.10;1.10;;;20.50;60.70;;;;;;5044868;28;20184;-76
2022/10/14 10:55:25;;;;;;;1.20;1.20;;;20.60;62.30;;;;;;5051734;28;20176;-77
2022/10/14 10:58:12;;;;;;;0.80;0.80;;;20.70;62.00;;;;;;5045839;28;20219;-77
2022/10/14 11:00:51;;;;;;;0.77;0.77;;;20.80;60.40;;;;;;5047337;28;20183;-77
2022/10/14 11:03:42;;;;;;;1.05;1.00;;;20.60;59.90;;;;;;5050389;28;20186;-76
2022/10/14 11:12:01;;;;;;;0.93;0.93;;;20.50;60.10;;;;;;5028988;28;20224;-77
2022/10/14 11:12:14;;;;;;;1.00;1.00;;;20.20;59.60;;;;;;5050390;28;20265;-77
2022/10/14 11:14:45;;;;;;;0.82;0.82;;;20.20;59.30;;;;;;5049784;28;20179;-77
2022/10/14 11:17:30;;;;;;;0.50;0.50;;;20.30;56.50;;;;;;5048598;28;20817;-76
2022/10/14 11:20:19;;;;;;;0.43;0.43;;;20.20;56.80;;;;;;5053440;28;20183;-76
2022/10/14 11:23:12;;;;;;;0.52;0.52;;;20.10;55.60;;;;;;4959271;28;20187;-75
2022/10/14 11:26:02;;;;;;;0.45;0.45;;;20.20;55.20;;;;;;4956890;28;20218;-76
2022/10/14 11:28:40;;;;;;;0.50;0.50;;;20.30;57.30;;;;;;4954855;28;20190;-76
2022/10/14 11:31:46;;;;;;;0.40;0.40;;;20.50;56.50;;;;;;4957973;28;20241;-76
2022/10/14 11:34:46;;;;;;;2.05;0.40;;;20.40;54.30;;;;;;4961019;28;20190;-77
2022/10/14 11:37:19;;;;;;;0.40;0.40;;;20.40;54.30;;;;;;4957201;28;20293;-77
2022/10/14 11:39:49;;;;;;;0.30;0.30;;;20.70;53.80;;;;;;4954899;28;20221;-76
2022/10/14 11:42:37;;;;;;;0.38;0.38;;;20.90;56.40;;;;;;4958230;28;20636;-77
2022/10/14 11:45:23;;;;;;;0.45;0.40;;;21.40;54.40;;;;;;4955625;28;20213;-76
2022/10/14 11:47:52;;;;;;;0.40;0.40;;;21.90;54.40;;;;;;4957505;28;20206;-76
2022/10/14 11:50:30;;;;;;;0.38;0.38;;;22.50;54.20;;;;;;4958089;28;20179;-76
2022/10/14 11:53:28;;;;;;;0.30;0.30;;;22.80;52.50;;;;;;4944522;28;20836;-77
2022/10/14 11:56:18;;;;;;;0.52;0.20;;;23.20;52.00;;;;;;4904234;29;20215;-77
2022/10/14 11:58:46;;;;;;;0.30;0.30;;;23.50;50.40;;;;;;4910710;28;20251;-77
2022/10/14 12:01:15;;;;;;;0.30;0.30;;;23.90;51.50;;;;;;4995986;28;20213;-78
2022/10/14 12:04:09;;;;;;;1.85;0.30;;;24.00;50.30;;;;;;4988370;28;20273;-76
2022/10/14 12:06:50;;;;;;;0.32;0.32;;;24.20;50.30;;;;;;4988338;28;20352;-76
2022/10/14 12:09:21;;;;;;;0.30;0.30;;;24.40;52.40;;;;;;4991950;28;20193;-76
2022/10/14 12:11:56;;;;;;;0.35;0.25;;;24.60;51.40;;;;;;4989153;28;20201;-75
2022/10/14 12:14:35;;;;;;;1.02;0.30;;;24.70;50.40;;;;;;4991730;28;20196;-76
2022/10/14 12:17:13;;;;;;;0.20;0.20;;;24.80;50.70;;;;;;4993749;28;20211;-76
2022/10/14 12:19:39;;;;;;;0.40;0.40;;;24.90;50.40;;;;;;4987891;28;20204;-75
2022/10/14 12:22:21;;;;;;;0.20;0.20;;;25.00;49.80;;;;;;4993583;28;20193;-75
2022/10/14 12:25:16;;;;;;;0.30;0.30;;;24.70;48.20;;;;;;4989796;28;20192;-75
2022/10/14 12:27:42;;;;;;;0.30;0.20;;;24.20;49.00;;;;;;4974466;28;20204;-75
2022/10/14 12:30:34;;;;;;;4.35;0.50;;;23.70;48.80;;;;;;4985534;28;20995;-75
2022/10/14 12:33:03;;;;;;;3.65;0.30;;;23.50;50.70;;;;;;5027592;28;21023;-75
2022/10/14 12:35:47;;;;;;;0.63;0.20;;;23.10;52.00;;;;;;5047215;28;20513;-75
2022/10/14 12:38:13;;;;;;;0.30;0.30;;;22.90;53.50;;;;;;5047133;28;20179;-75
2022/10/14 12:40:39;;;;;;;0.30;0.30;;;22.60;54.00;;;;;;5052542;28;20183;-75
2022/10/14 12:43:13;;;;;;;0.30;0.30;;;22.50;54.20;;;;;;5048859;28;20195;-75
2022/10/14 12:45:48;;;;;;;0.30;0.30;;;22.20;54.50;;;;;;5051790;28;20726;-75
2022/10/14 12:48:18;;;;;;;0.55;0.55;;;22.00;54.80;;;;;;5050720;28;20183;-75
2022/10/14 12:50:46;;;;;;;0.68;0.40;;;21.80;54.20;;;;;;5031815;28;20194;-74
2022/10/14 12:53:23;;;;;;;1.65;0.35;;;21.50;54.20;;;;;;5048800;28;20639;-76
2022/10/14 12:55:55;;;;;;;0.60;0.57;;;21.20;54.50;;;;;;5053184;28;20191;-75
2022/10/14 12:58:31;;;;;;;0.30;0.30;;;20.80;55.20;;;;;;5054735;28;20179;-75
2022/10/14 13:01:04;;;;;;;0.55;0.40;;;20.70;56.80;;;;;;5047769;28;20179;-75
2022/10/14 13:03:35;;;;;;;0.50;0.50;;;20.50;56.70;;;;;;5051270;28;20191;-75
2022/10/14 13:06:29;;;;;;;0.30;0.30;;;20.10;57.10;;;;;;5036282;28;20219;-74
2022/10/14 13:09:15;;;;;;;1.55;0.40;;;20.10;56.70;;;;;;5047849;28;20712;-74
2022/10/14 13:12:04;;;;;;;0.45;0.38;;;20.10;56.80;;;;;;5033746;28;20845;-74
2022/10/14 13:15:03;;;;;;;5.10;0.60;;;20.00;56.20;;;;;;4983873;28;20189;-74